Airfield :
LOGIN :

Register | Disclaimer

   EN    FR    IT 

 










Legend :    VFR   Marginal VFR   IFR   Intensive IFR   Very Intensive IFR
Visi :
Ceiling :
>= 8 km
>= 3000ft
5 to 8 km
1000 to 3000 ft
1500m to 5 km
500 to 1000 ft
800 to 1500m
200 to 500 ft
< 800m
< 200 ft
Symbols :   Thunderstorms  Fog  Heavy snow  Heavy precipitations  Wind > 20 kt
SIGMETs :     Misc.  Thunderstorms  Icing  Turbulence  Mountain Waves  Volcanic Ashes






- Airport Elevation : 112 ft
- IATA code : KIR


EIKY - Kerry Farranfore

CURRENT METAR :
  • 282000Z 26011KT 9999 BKN037 09/06 Q1003

EXPIRED METARs :
  • 281930Z 26011KT 240V300 9999 -RA FEW021 BKN033 09/07 Q1003
  • 281900Z 26009KT 9999 -RA SCT026 BKN034 08/07 Q1003
  • 281830Z 24011KT 9999 -RA SCT026 08/06 Q1002
  • 281800Z 24008KT 9999 FEW045 08/05 Q1001
  • 281730Z 25011KT 9999 FEW033 08/05 Q1001

TAF TAF EIKY
Valid from the 28 at 18:00 until the 29 at 03:00 UTC


281700Z 2818/2903 26014KT 9999 FEW018 BKN040
TEMPO 2818/2821 25017G28KT
TEMPO 2818/2820 -SHRA SCT020CB
BECMG 2822/2824 22015G25KT -RA BKN012



MET'MAP, your aeronautical weather chart ! - Copyright ORBIFLY December 2007 - Disclaimer

ORBIFLY MET'MAP TEAM :

Programming & Development : Alexandra Zaïnal
Concept & original design : Baudouin d'Aumeries
Assistance for programming : Marc-Olivier Méhu
Technical & hardware support : Manuel Goepfert

Contact : metmap@orbifly.com




SOURCES & CREDITS :

   NOAA